Time;durP1;ratioP1;P1;durP2;ratioP2;P2;SDS_P1;SDS_P2;PMS_P1;PMS_P2;Temp;Humidity;BMP_temperature;BMP_pressure;BME280_temperature;BME280_humidity;BME280_pressure;Samples;Min_cycle;Max_cycle;Signal;HPM_P1;HPM_P2
2022/05/20 00:03:51;;;;;;;1.65;1.40;;;25.30;37.10;;;23.79;37.71;101357.72;12239890;19;20015;-79
2022/05/20 00:07:53;;;;;;;1.50;1.40;;;25.40;37.20;;;23.94;38.04;101397.16;12240378;19;20010;-79
2022/05/20 00:11:55;;;;;;;1.42;1.23;;;25.50;37.40;;;23.79;37.75;101387.06;12239960;19;20497;-79
2022/05/20 00:15:57;;;;;;;1.33;1.23;;;25.40;37.50;;;23.86;38.21;101411.25;12241863;19;20087;-79
2022/05/20 00:20:01;;;;;;;3.15;1.30;;;25.40;37.60;;;23.62;38.43;101387.88;12238331;19;20353;-79
2022/05/20 00:24:03;;;;;;;1.40;1.30;;;25.40;37.70;;;23.68;38.29;101399.75;12239807;19;20042;-79
2022/05/20 00:28:05;;;;;;;3.60;1.45;;;25.40;37.90;;;23.73;38.34;101422.31;12232744;19;20082;-79
2022/05/20 00:32:07;;;;;;;1.48;1.38;;;25.40;38.00;;;23.72;38.73;101417.16;12239783;19;20018;-79
2022/05/20 00:36:09;;;;;;;2.40;1.40;;;25.30;38.10;;;23.61;38.96;101415.53;12238895;19;20033;-79
2022/05/20 00:40:15;;;;;;;1.92;1.45;;;25.20;38.20;;;23.44;39.12;101411.03;12239306;19;20018;-79
2022/05/20 00:44:17;;;;;;;3.65;1.10;;;25.10;38.30;;;23.49;39.28;101430.91;12234004;19;20741;-78
2022/05/20 00:48:19;;;;;;;1.20;1.17;;;25.10;38.40;;;23.42;39.36;101432.53;12238156;19;20010;-78
2022/05/20 00:52:25;;;;;;;1.33;1.10;;;25.00;38.50;;;23.21;39.68;101405.31;12230433;19;20014;-78
2022/05/20 00:56:36;;;;;;;1.40;1.30;;;24.90;38.70;;;23.24;40.04;101429.81;12238000;19;20010;-78
2022/05/20 01:00:45;;;;;;;1.45;1.25;;;24.90;39.10;;;23.18;40.17;101423.28;12237415;19;20018;-78
2022/05/20 01:04:48;;;;;;;4.20;1.80;;;24.90;39.30;;;23.11;40.31;101440.00;12234329;19;20474;-79
2022/05/20 01:08:53;;;;;;;1.52;1.42;;;24.80;39.30;;;22.96;40.08;101424.53;12229934;19;20135;-78
2022/05/20 01:12:56;;;;;;;5.25;1.20;;;24.70;39.30;;;22.88;40.07;101427.06;12231231;19;20007;-78
2022/05/20 01:16:58;;;;;;;1.52;1.38;;;24.50;39.50;;;22.80;40.82;101420.81;12238875;19;20507;-78
2022/05/20 01:21:00;;;;;;;6.13;1.50;;;24.50;39.70;;;22.90;40.72;101454.41;12235623;19;20387;-78
2022/05/20 01:25:04;;;;;;;1.38;1.08;;;24.50;39.80;;;22.79;40.56;101438.59;12233842;19;20030;-78
2022/05/20 01:29:07;;;;;;;1.60;1.48;;;24.50;40.10;;;22.77;40.77;101445.91;12238390;19;20532;-78
2022/05/20 01:33:10;;;;;;;1.63;1.52;;;24.50;40.10;;;22.81;41.32;101457.09;12227979;19;20022;-79
2022/05/20 01:37:12;;;;;;;1.42;1.33;;;24.50;40.30;;;22.67;41.07;101437.09;12231379;19;20019;-78
2022/05/20 01:41:55;;;;;;;1.55;1.17;;;24.40;40.30;;;22.71;41.47;101457.13;12248075;19;20018;-78
2022/05/20 01:46:07;;;;;;;1.27;1.20;;;24.40;40.60;;;22.72;41.65;101469.47;12245562;19;20006;-79
2022/05/20 01:50:15;;;;;;;2.00;0.90;;;24.40;40.90;;;22.60;41.80;101463.50;12249656;19;20021;-79
2022/05/20 01:54:45;;;;;;;4.90;1.80;;;24.30;40.60;;;22.63;42.36;101478.31;12240641;19;20430;-78
2022/05/20 01:58:57;;;;;;;1.70;1.25;;;24.20;41.00;;;22.44;41.97;101458.78;12249855;19;20022;-78
2022/05/20 02:03:37;;;;;;;1.67;1.20;;;24.20;41.10;;;22.42;42.15;101481.19;12247246;19;20049;-78
2022/05/20 02:07:43;;;;;;;1.98;1.23;;;24.20;41.30;;;22.34;42.25;101465.94;12247612;19;20025;-78
2022/05/20 02:11:49;;;;;;;1.25;1.15;;;24.10;41.10;;;22.33;42.48;101490.00;12242242;19;20007;-78
2022/05/20 02:15:54;;;;;;;;;;;24.10;41.30;;;22.07;41.27;101454.16;12248397;19;20053;-78
2022/05/20 02:20:29;;;;;;;1.17;1.13;;;24.00;39.90;;;22.26;42.23;101492.41;12243669;19;19925;-78
2022/05/20 02:24:33;;;;;;;4.60;1.60;;;24.00;41.30;;;22.14;42.62;101502.31;12244733;19;20017;-78
2022/05/20 02:28:54;;;;;;;1.70;1.42;;;24.00;41.40;;;22.14;42.82;101504.16;12246462;19;20016;-78
2022/05/20 02:33:29;;;;;;;2.53;1.67;;;23.80;41.70;;;22.15;42.97;101524.47;12242885;19;20034;-78
2022/05/20 02:37:35;;;;;;;1.67;1.58;;;23.80;42.00;;;21.97;42.87;101503.03;12244353;19;20019;-78
2022/05/20 02:41:37;;;;;;;3.42;2.20;;;24.00;42.00;;;22.03;43.28;101519.25;12245602;19;20010;-79
2022/05/20 02:45:42;;;;;;;2.25;2.05;;;23.70;42.10;;;21.96;43.42;101528.81;12240908;19;20031;-78
2022/05/20 02:49:43;;;;;;;2.43;2.00;;;23.60;42.20;;;21.91;43.32;101515.06;12244577;19;20081;-78
2022/05/20 02:53:47;;;;;;;1.98;1.85;;;23.60;42.10;;;21.80;43.55;101515.22;12243756;19;20026;-78
2022/05/20 02:57:48;;;;;;;2.80;1.92;;;23.40;42.30;;;21.84;43.60;101524.56;12243814;19;20017;-78
2022/05/20 03:06:10;;;;;;;2.40;2.20;;;23.40;42.60;;;21.73;43.86;101522.03;12239681;19;20044;-78
2022/05/20 03:10:12;;;;;;;3.63;2.45;;;23.40;42.70;;;21.61;44.20;101524.00;12244007;19;20098;-78
2022/05/20 03:14:18;;;;;;;2.67;2.45;;;23.40;42.90;;;21.61;44.27;101530.16;12241939;19;20015;-78
2022/05/20 03:18:20;;;;;;;2.90;2.45;;;23.40;43.00;;;21.59;44.15;101542.72;12244380;19;20019;-78
2022/05/20 03:22:21;;;;;;;2.33;2.17;;;23.30;42.90;;;21.39;44.18;101523.25;12238844;19;20388;-78
2022/05/20 03:26:23;;;;;;;3.20;2.90;;;23.30;43.00;;;21.45;44.13;101529.00;12241436;19;20017;-78
2022/05/20 03:30:25;;;;;;;4.47;2.65;;;23.30;43.30;;;21.42;44.55;101530.09;12239527;19;20389;-78
2022/05/20 03:34:26;;;;;;;3.03;2.60;;;23.20;43.40;;;21.45;44.36;101526.34;12240519;19;20027;-78
2022/05/20 03:38:28;;;;;;;3.05;2.42;;;23.20;43.60;;;21.40;44.67;101529.41;12240032;19;20014;-78
2022/05/20 03:42:30;;;;;;;3.05;2.85;;;23.20;43.50;;;21.33;44.55;101522.91;12239712;19;20493;-78
2022/05/20 03:46:32;;;;;;;4.38;2.95;;;23.20;43.70;;;21.50;45.14;101564.00;12238050;19;20018;-78
2022/05/20 03:50:34;;;;;;;3.17;2.53;;;23.40;43.90;;;21.13;45.26;101501.59;12238793;19;20022;-78
2022/05/20 03:54:36;;;;;;;3.22;2.92;;;23.00;43.90;;;21.50;44.98;101562.16;12239981;19;20010;-78
2022/05/20 03:58:38;;;;;;;3.30;3.00;;;23.10;44.00;;;21.40;44.89;101542.69;12239715;19;20077;-78
2022/05/20 04:02:39;;;;;;;2.65;2.45;;;23.10;43.70;;;21.40;45.30;101555.97;12235381;19;20022;-78
2022/05/20 04:06:41;;;;;;;2.20;2.00;;;23.10;43.80;;;21.40;45.25;101561.28;12238535;19;20010;-79
2022/05/20 04:10:43;;;;;;;2.22;2.03;;;23.00;43.80;;;21.41;45.55;101562.94;12235851;19;20095;-78
2022/05/20 04:14:45;;;;;;;2.95;2.70;;;23.10;44.10;;;21.09;45.45;101513.47;12237872;19;20031;-79
2022/05/20 04:18:46;;;;;;;2.45;2.22;;;23.10;44.00;;;21.47;45.51;101577.50;12239161;19;20017;-78
2022/05/20 04:22:48;;;;;;;2.38;2.17;;;23.10;44.10;;;21.34;45.61;101545.84;12233610;19;20034;-79
2022/05/20 04:26:51;;;;;;;2.22;2.08;;;23.10;44.10;;;21.56;45.35;101588.19;12240579;19;20788;-79
2022/05/20 04:30:58;;;;;;;2.17;2.08;;;23.20;44.00;;;21.59;45.91;101576.44;12234605;19;20026;-78
2022/05/20 04:35:00;;;;;;;2.67;2.47;;;23.20;44.10;;;21.55;45.61;101573.22;12231843;19;20021;-78
2022/05/20 04:39:02;;;;;;;2.88;2.38;;;23.30;44.20;;;21.50;45.85;101554.19;12219727;19;20014;-78
2022/05/20 04:47:27;;;;;;;4.43;3.08;;;23.20;44.50;;;21.61;45.90;101585.97;12231626;19;20748;-78
2022/05/20 04:51:29;;;;;;;2.65;2.45;;;23.30;44.70;;;21.70;45.82;101604.75;12228012;19;20044;-79
2022/05/20 04:55:31;;;;;;;2.22;2.03;;;23.30;45.00;;;21.70;45.90;101610.06;12231801;19;20420;-78
2022/05/20 04:59:35;;;;;;;3.13;2.83;;;23.40;44.80;;;21.59;46.44;101595.91;12235173;19;20035;-78
2022/05/20 05:03:37;;;;;;;2.83;2.63;;;23.20;44.80;;;21.71;46.09;101617.06;12231340;19;20099;-77
2022/05/20 05:07:45;;;;;;;5.15;2.78;;;23.30;44.70;;;21.57;46.17;101595.19;12235493;19;20011;-78
2022/05/20 05:11:47;;;;;;;2.97;2.63;;;23.20;44.80;;;21.63;46.29;101615.94;12227703;19;20017;-78
2022/05/20 05:15:48;;;;;;;3.30;3.00;;;23.40;44.90;;;21.62;46.54;101619.53;12245009;19;20018;-78
2022/05/20 05:19:50;;;;;;;3.47;3.05;;;23.30;44.90;;;21.59;46.61;101616.31;12244303;19;20014;-78
2022/05/20 05:23:53;;;;;;;6.55;2.58;;;23.50;45.00;;;21.38;46.64;101574.69;12241125;19;20019;-78
2022/05/20 05:27:55;;;;;;;3.78;2.78;;;23.40;45.00;;;21.70;46.34;101620.69;12241323;19;20014;-78
2022/05/20 05:31:58;;;;;;;3.30;3.00;;;23.40;45.20;;;21.73;46.78;101621.25;12241704;19;20081;-78
2022/05/20 05:35:59;;;;;;;3.35;2.70;;;23.30;45.30;;;21.87;46.65;101634.19;12242261;19;20491;-77
2022/05/20 05:40:02;;;;;;;5.32;2.83;;;23.50;45.30;;;21.93;46.51;101634.59;12238001;19;20370;-78
2022/05/20 05:44:04;;;;;;;3.03;2.72;;;23.50;45.40;;;21.92;46.67;101635.59;12240808;19;20392;-77
2022/05/20 05:48:09;;;;;;;4.28;2.97;;;23.50;45.40;;;21.94;46.72;101633.66;12243448;19;20026;-77
2022/05/20 05:52:11;;;;;;;3.00;2.80;;;23.60;45.60;;;21.72;46.83;101581.53;12240781;19;20015;-78
2022/05/20 05:56:13;;;;;;;4.55;3.15;;;23.60;45.50;;;22.06;46.85;101614.78;12242318;19;20085;-78
2022/05/20 06:00:15;;;;;;;3.53;3.22;;;23.70;45.30;;;22.08;46.43;101622.59;12245422;19;20030;-81
2022/05/20 06:04:17;;;;;;;3.78;3.40;;;23.80;45.30;;;22.19;46.63;101627.00;12236101;19;20006;-78
2022/05/20 06:08:19;;;;;;;7.03;2.80;;;23.70;45.30;;;22.36;47.00;101634.31;12239444;19;20022;-78
2022/05/20 06:12:21;;;;;;;4.57;3.67;;;23.90;45.40;;;22.51;46.90;101640.88;12237147;19;20010;-79
2022/05/20 06:16:23;;;;;;;3.75;3.45;;;23.80;45.30;;;22.33;46.72;101602.63;12239479;19;20029;-79
2022/05/20 06:20:26;;;;;;;4.45;3.58;;;24.10;45.30;;;22.34;46.83;101599.00;12240552;19;20013;-77
2022/05/20 06:24:27;;;;;;;4.15;3.47;;;24.20;45.20;;;22.52;47.08;101633.72;12236844;19;20382;-80
2022/05/20 06:28:30;;;;;;;3.67;3.35;;;24.20;45.10;;;22.44;46.88;101615.81;12239398;19;20027;-79
2022/05/20 06:32:32;;;;;;;3.72;3.42;;;24.20;45.00;;;22.52;47.14;101633.72;12231123;19;20022;-79
2022/05/20 06:40:55;;;;;;;5.05;3.50;;;24.20;45.00;;;22.57;47.00;101647.44;12238056;19;20531;-78
2022/05/20 06:44:57;;;;;;;3.88;3.05;;;24.20;44.90;;;22.54;47.05;101643.25;12237014;19;20025;-78
2022/05/20 06:49:00;;;;;;;3.90;3.60;;;24.20;44.70;;;22.53;46.88;101646.91;12236271;19;20014;-79
2022/05/20 06:53:02;;;;;;;3.45;3.22;;;24.00;44.30;;;22.57;46.79;101662.59;12232547;19;20011;-78
2022/05/20 06:57:04;;;;;;;3.97;3.00;;;24.20;44.40;;;22.48;46.97;101635.81;12234745;19;20043;-79
2022/05/20 07:01:05;;;;;;;2.72;2.53;;;24.20;44.40;;;22.59;46.83;101642.00;12233258;19;20018;-78
2022/05/20 07:05:09;;;;;;;2.92;2.72;;;24.20;44.20;;;22.69;46.54;101649.00;12233466;19;20085;-79
2022/05/20 07:09:10;;;;;;;2.92;2.70;;;24.30;44.00;;;22.69;46.42;101645.50;12218993;19;20030;-79
2022/05/20 07:13:12;;;;;;;3.80;2.60;;;24.40;44.10;;;22.71;46.40;101633.72;12236485;19;20751;-79
2022/05/20 07:17:20;;;;;;;3.38;3.08;;;24.30;44.00;;;22.79;46.68;101643.69;12238476;19;20053;-79
2022/05/20 07:21:22;;;;;;;4.18;3.15;;;24.30;44.00;;;22.99;46.30;101649.00;12240508;19;20022;-77
2022/05/20 07:25:23;;;;;;;3.03;2.63;;;24.30;44.00;;;23.09;46.55;101629.34;12229249;19;20482;-79
2022/05/20 07:29:25;;;;;;;3.22;2.55;;;24.50;44.10;;;23.29;46.04;101634.63;12240709;19;20015;-79
2022/05/20 07:33:28;;;;;;;2.47;2.20;;;24.70;43.60;;;23.36;45.90;101630.38;12237407;19;20024;-79
2022/05/20 07:37:30;;;;;;;2.70;2.42;;;24.80;43.40;;;23.52;46.22;101622.59;12233216;19;20018;-79
2022/05/20 07:41:33;;;;;;;2.00;1.90;;;24.90;43.30;;;23.51;45.56;101593.41;12233092;19;20049;-79
2022/05/20 07:45:35;;;;;;;3.30;2.15;;;25.10;43.40;;;23.68;45.54;101597.09;12237706;19;20034;-79
2022/05/20 07:49:36;;;;;;;4.78;2.70;;;25.40;43.00;;;23.83;45.33;101612.47;12229710;19;20159;-79
2022/05/20 07:53:45;;;;;;;2.03;1.92;;;25.30;42.90;;;23.96;45.37;101600.63;12234176;19;20022;-78
2022/05/20 07:57:47;;;;;;;2.30;2.10;;;25.30;42.60;;;24.14;45.20;101612.16;12236382;19;20034;-78
2022/05/20 08:01:50;;;;;;;2.85;2.00;;;25.60;42.50;;;24.02;45.09;101592.00;12232417;19;20014;-78
2022/05/20 08:05:52;;;;;;;2.67;1.63;;;25.70;41.80;;;24.19;45.05;101598.34;12235616;19;20022;-78
2022/05/20 08:09:54;;;;;;;1.70;1.60;;;25.80;41.80;;;24.38;44.71;101614.19;12228938;19;20021;-81
2022/05/20 08:13:55;;;;;;;2.55;1.98;;;25.90;41.70;;;24.52;44.22;101620.88;12233953;19;20468;-79
2022/05/20 08:17:57;;;;;;;2.85;2.08;;;26.00;41.50;;;24.41;44.03;101581.88;12232664;19;20014;-78
2022/05/20 08:22:00;;;;;;;2.00;1.88;;;26.00;41.20;;;24.78;44.02;101620.06;12235115;19;20022;-79
2022/05/20 08:26:01;;;;;;;2.20;2.03;;;26.10;41.50;;;24.83;44.30;101607.06;12227840;19;20031;-79
2022/05/20 08:30:12;;;;;;;1.90;1.75;;;26.20;41.30;;;25.01;43.87;101594.50;12234189;19;20077;-79
2022/05/20 08:34:14;;;;;;;2.20;2.10;;;26.50;41.30;;;25.12;43.73;101602.25;12232064;19;20460;-81
2022/05/20 08:38:17;;;;;;;2.85;1.95;;;26.70;40.90;;;25.36;43.53;101611.44;12233274;19;20107;-78
2022/05/20 08:42:22;;;;;;;2.20;2.03;;;26.70;40.50;;;25.39;42.90;101592.38;12230603;19;20090;-78
2022/05/20 08:46:24;;;;;;;1.88;1.77;;;26.90;40.50;;;25.56;43.50;101594.13;12230613;19;20468;-79
2022/05/20 08:50:48;;;;;;;1.75;1.65;;;26.90;40.20;;;25.71;43.00;101606.91;12224114;19;20022;-78
2022/05/20 08:54:50;;;;;;;2.25;1.58;;;27.10;39.80;;;25.70;42.95;101594.50;12228105;19;20015;-79
2022/05/20 08:59:01;;;;;;;1.92;1.65;;;27.20;39.70;;;25.87;42.69;101598.94;12232152;19;20022;-78
2022/05/20 09:03:06;;;;;;;1.60;1.50;;;27.30;39.70;;;25.88;42.83;101587.22;12228642;19;20023;-79
2022/05/20 09:07:14;;;;;;;2.80;1.70;;;27.40;39.60;;;26.07;42.23;101588.75;12232160;19;20037;-79
2022/05/20 09:11:26;;;;;;;1.65;1.55;;;27.50;39.20;;;25.93;41.91;101547.44;12224048;19;20025;-78
2022/05/20 09:20:05;;;;;;;1.63;1.40;;;27.80;39.10;;;26.42;41.40;101576.06;12232892;19;20372;-79
2022/05/20 09:24:16;;;;;;;1.73;1.50;;;27.80;38.60;;;26.48;41.33;101586.94;12230403;19;20014;-79
2022/05/20 09:28:36;;;;;;;2.03;1.50;;;28.00;38.20;;;26.67;41.11;101574.22;12228476;19;20203;-79
2022/05/20 09:32:47;;;;;;;2.03;1.85;;;28.10;38.20;;;26.79;40.85;101585.41;12227859;19;20022;-79
2022/05/20 09:37:00;;;;;;;3.50;1.38;;;28.20;38.30;;;26.90;40.70;101588.59;12232426;19;20017;-78
2022/05/20 09:41:20;;;;;;;1.50;1.40;;;28.30;37.90;;;26.89;40.57;101565.47;12219634;19;20014;-78
2022/05/20 09:45:21;;;;;;;3.35;2.05;;;28.40;37.70;;;26.84;40.54;101554.44;12219392;19;20351;-78
2022/05/20 09:49:47;;;;;;;1.60;1.50;;;28.50;37.80;;;27.07;40.30;101567.94;12221324;19;20022;-79
2022/05/20 09:54:10;;;;;;;4.47;1.40;;;28.50;37.80;;;27.13;40.49;101540.41;12225526;19;20471;-82
2022/05/20 09:58:32;;;;;;;2.13;1.60;;;28.60;37.70;;;27.29;40.19;101544.91;12227208;19;20026;-79
2022/05/20 10:03:09;;;;;;;4.10;1.40;;;28.70;37.50;;;27.57;39.95;101550.66;12240108;19;20099;-78
2022/05/20 10:07:19;;;;;;;1.55;1.45;;;28.90;37.50;;;27.72;39.70;101536.47;12242426;19;20011;-78
2022/05/20 10:11:37;;;;;;;2.80;1.42;;;29.10;36.90;;;27.69;38.72;101526.94;12241378;19;20467;-79
2022/05/20 10:15:46;;;;;;;2.55;1.42;;;29.10;36.20;;;27.68;39.03;101516.34;12243120;19;20042;-78
2022/05/20 10:20:22;;;;;;;1.50;1.35;;;29.40;36.50;;;27.66;38.71;101529.97;12240644;19;20054;-78
2022/05/20 10:25:00;;;;;;;1.35;1.25;;;29.20;36.00;;;27.78;38.39;101539.25;12238162;19;20391;-78
2022/05/20 10:33:52;;;;;;;1.15;1.13;;;29.30;36.30;;;27.84;38.26;101524.34;12240089;19;20014;-80
2022/05/20 10:38:18;;;;;;;0.95;0.93;;;29.10;35.40;;;27.95;37.46;101513.19;12238322;19;20018;-79
2022/05/20 10:43:21;;;;;;;2.85;1.27;;;29.40;34.90;;;27.97;37.56;101497.72;12243018;19;20026;-80
2022/05/20 10:53:04;;;;;;;1.52;1.40;;;29.50;34.80;;;28.07;37.46;101499.31;12237373;19;20022;-79
2022/05/20 10:57:37;;;;;;;1.42;1.33;;;29.50;34.80;;;28.16;37.35;101488.31;12240323;19;20022;-79
2022/05/20 11:02:09;;;;;;;2.65;1.60;;;29.60;35.00;;;28.21;36.92;101488.59;12240293;19;20074;-78
2022/05/20 11:06:26;;;;;;;1.00;1.00;;;29.70;34.30;;;28.20;36.48;101478.06;12239745;19;20366;-78
2022/05/20 11:10:45;;;;;;;1.30;1.10;;;29.70;34.20;;;28.18;36.51;101467.47;12235466;19;20014;-78
2022/05/20 11:15:32;;;;;;;3.55;1.40;;;29.70;34.10;;;28.30;36.64;101458.97;12239284;19;20022;-78
2022/05/20 11:19:48;;;;;;;3.47;1.50;;;29.80;34.40;;;28.49;36.19;101469.25;12236967;19;20014;-79
2022/05/20 11:24:17;;;;;;;2.50;1.40;;;29.90;34.30;;;28.62;35.72;101455.97;12229808;19;20038;-78
2022/05/20 11:28:50;;;;;;;1.50;1.40;;;29.90;34.00;;;28.72;35.47;101461.06;12237769;19;20014;-79
2022/05/20 11:33:56;;;;;;;1.33;1.23;;;30.10;33.80;;;28.82;35.56;101440.13;12235551;19;20023;-79
2022/05/20 11:38:31;;;;;;;1.58;1.30;;;30.20;34.20;;;28.80;35.49;101430.56;12231175;19;20019;-79
2022/05/20 11:43:19;;;;;;;1.50;1.20;;;29.90;33.40;;;28.82;35.54;101413.22;12236098;19;20026;-82
2022/05/20 11:47:31;;;;;;;1.42;1.30;;;30.30;34.00;;;28.88;35.48;101408.94;12222849;19;20019;-80
2022/05/20 11:52:00;;;;;;;1.35;1.17;;;30.30;33.40;;;29.09;34.41;101418.94;12227284;19;20373;-79
2022/05/20 11:56:18;;;;;;;0.98;0.98;;;30.20;32.80;;;29.16;34.56;101417.16;12231603;19;20014;-80
2022/05/20 12:00:21;;;;;;;1.10;1.10;;;30.50;33.00;;;29.24;34.86;101413.50;12229242;19;20022;-80
2022/05/20 12:04:27;;;;;;;1.17;1.08;;;30.60;32.90;;;29.32;34.24;101398.06;12231823;19;20037;-78
2022/05/20 12:08:39;;;;;;;1.13;1.02;;;30.60;32.70;;;29.38;33.95;101393.81;12232253;19;20029;-77
2022/05/20 12:13:16;;;;;;;1.65;0.90;;;30.80;32.50;;;29.37;33.93;101372.44;12235728;19;20041;-78
2022/05/20 12:17:38;;;;;;;1.33;1.10;;;30.80;32.60;;;29.31;33.41;101368.69;12216303;19;21093;-77
2022/05/20 12:26:22;;;;;;;0.90;0.90;;;30.80;31.80;;;29.27;33.63;101351.25;12073850;19;20018;-76
2022/05/20 12:30:50;;;;;;;1.40;1.30;;;30.70;32.10;;;29.37;33.36;101340.16;12077689;19;20459;-78
2022/05/20 12:35:15;;;;;;;1.10;1.05;;;30.80;32.00;;;29.54;33.18;101344.22;12073086;19;20878;-78
2022/05/20 12:39:40;;;;;;;1.45;1.10;;;30.90;32.20;;;29.49;33.09;101326.00;12068514;19;20463;-78
2022/05/20 12:43:49;;;;;;;1.05;0.95;;;31.00;31.90;;;29.64;32.84;101319.72;12076983;19;20015;-78
2022/05/20 12:47:50;;;;;;;0.85;0.85;;;31.00;31.90;;;29.64;33.00;101301.69;12072090;19;20391;-77
2022/05/20 12:51:54;;;;;;;1.50;1.10;;;31.10;31.70;;;29.80;32.63;101316.72;12069791;19;20426;-78
2022/05/20 12:55:56;;;;;;;1.27;1.17;;;31.20;31.80;;;29.84;32.50;101311.75;12077554;19;20026;-78
2022/05/20 13:00:03;;;;;;;1.08;1.05;;;31.30;31.70;;;29.94;32.21;101307.69;12073160;19;20014;-79
2022/05/20 13:04:11;;;;;;;1.48;1.27;;;31.20;31.70;;;29.98;32.14;101303.56;12065988;19;20018;-77
2022/05/20 13:08:19;;;;;;;2.03;1.20;;;31.40;31.90;;;29.97;32.21;101288.44;12074261;19;20736;-78
2022/05/20 13:12:22;;;;;;;2.65;1.30;;;31.50;31.80;;;30.11;31.93;101294.72;12065108;19;21105;-78
2022/05/20 13:16:27;;;;;;;1.13;1.13;;;31.50;31.60;;;30.15;32.38;101311.31;12072343;19;20010;-79
2022/05/20 13:20:32;;;;;;;1.50;1.40;;;31.60;31.70;;;30.06;31.85;101285.59;12068761;19;20300;-77
2022/05/20 13:24:38;;;;;;;1.60;1.27;;;31.60;31.40;;;30.02;32.05;101285.13;12071771;19;20015;-78
2022/05/20 13:28:39;;;;;;;1.02;1.02;;;31.60;31.50;;;29.98;32.14;101267.72;12073097;19;21075;-78
2022/05/20 13:32:41;;;;;;;1.98;1.05;;;31.50;31.40;;;29.99;31.79;101270.19;12015962;19;21538;-78
2022/05/20 13:36:48;;;;;;;1.33;1.23;;;31.50;31.40;;;29.97;31.72;101261.50;12048693;19;20015;-78
2022/05/20 13:40:51;;;;;;;1.10;1.00;;;31.50;31.30;;;29.78;31.67;101233.41;12038404;19;20354;-76
2022/05/20 13:44:53;;;;;;;1.58;1.30;;;31.30;31.20;;;29.81;31.72;101234.88;12062938;19;20014;-77
2022/05/20 13:49:16;;;;;;;3.13;1.00;;;31.40;31.50;;;29.79;31.44;101223.50;12080987;19;20641;-77
2022/05/20 13:53:17;;;;;;;1.45;1.20;;;31.30;31.40;;;29.91;31.47;101234.53;12079742;19;20785;-76
2022/05/20 13:57:34;;;;;;;0.93;0.93;;;31.40;31.90;;;29.90;31.77;101216.72;12083692;19;21030;-77
2022/05/20 14:01:38;;;;;;;1.25;1.13;;;31.40;31.60;;;29.87;31.94;101190.19;12081047;19;20028;-76
2022/05/20 14:05:50;;;;;;;1.63;1.20;;;31.40;31.60;;;29.94;31.49;101186.47;12085095;19;20018;-78
2022/05/20 14:09:57;;;;;;;2.25;1.30;;;31.40;31.20;;;29.94;31.64;101191.03;12063910;19;20018;-77
2022/05/20 14:14:11;;;;;;;1.60;1.25;;;31.40;31.50;;;29.98;31.22;101182.34;12062879;19;20019;-78
2022/05/20 14:18:21;;;;;;;1.13;1.02;;;31.30;31.10;;;29.95;31.58;101155.00;12057087;19;20785;-78
2022/05/20 14:22:30;;;;;;;1.30;1.20;;;31.40;31.20;;;29.99;31.19;101149.00;12074635;19;20015;-77
2022/05/20 14:26:36;;;;;;;1.55;1.20;;;31.50;31.40;;;30.03;31.21;101124.34;12077675;19;20547;-78
2022/05/20 14:30:47;;;;;;;2.00;1.20;;;31.50;31.30;;;30.08;31.11;101121.88;12067964;19;20022;-77
2022/05/20 14:34:55;;;;;;;1.27;1.17;;;31.50;31.30;;;30.07;31.33;101122.91;12063217;19;20023;-77
2022/05/20 14:39:00;;;;;;;2.00;1.73;;;31.50;31.20;;;29.94;31.02;101116.44;12078499;19;20383;-77
2022/05/20 14:43:05;;;;;;;1.48;1.35;;;31.50;31.10;;;29.81;31.30;101113.72;12077547;19;20043;-78
2022/05/20 14:47:16;;;;;;;1.52;1.42;;;31.40;31.20;;;29.72;31.30;101106.84;12078372;19;20018;-78
2022/05/20 14:51:28;;;;;;;1.58;1.20;;;31.20;30.90;;;29.81;30.98;101127.19;12076644;19;20961;-76
2022/05/20 14:55:43;;;;;;;2.15;1.10;;;31.30;31.10;;;29.80;30.84;101113.94;12077343;19;20031;-76
2022/05/20 14:59:44;;;;;;;1.55;1.10;;;31.20;31.00;;;29.67;30.91;101090.47;12068204;19;20026;-77
2022/05/20 15:03:46;;;;;;;1.50;1.40;;;31.10;31.20;;;29.70;31.04;101100.84;12074533;19;20014;-76
2022/05/20 15:08:03;;;;;;;1.52;1.42;;;31.20;31.40;;;29.78;31.09;101092.56;12075377;19;20411;-76
2022/05/20 15:12:07;;;;;;;1.88;1.10;;;31.20;31.20;;;29.77;31.12;101088.25;12073478;19;20029;-77
2022/05/20 15:16:09;;;;;;;3.05;1.33;;;31.20;31.30;;;29.74;31.37;101067.94;12077212;19;20411;-77
2022/05/20 15:20:11;;;;;;;1.50;1.40;;;31.30;31.20;;;29.73;31.33;101086.97;12079372;19;21016;-77
2022/05/20 15:24:25;;;;;;;1.35;1.25;;;31.30;31.30;;;29.72;30.68;101082.63;12079265;19;20505;-76
2022/05/20 15:37:18;;;;;;;1.85;1.20;;;31.20;31.30;;;29.58;30.93;101064.75;12072128;19;20029;-77
2022/05/20 15:41:19;;;;;;;1.13;1.02;;;31.10;31.20;;;29.48;30.83;101041.72;12070151;19;20027;-78
2022/05/20 15:45:25;;;;;;;2.15;1.40;;;31.10;31.20;;;29.41;31.17;101038.19;12066090;19;20731;-78
2022/05/20 15:49:28;;;;;;;3.95;1.50;;;31.00;30.90;;;29.34;31.11;101029.25;12075125;19;20033;-77
2022/05/20 15:53:50;;;;;;;1.15;1.05;;;30.90;31.20;;;29.33;31.00;100988.06;12073941;19;20394;-81
2022/05/20 15:57:55;;;;;;;2.95;1.27;;;30.80;31.50;;;29.20;31.06;100944.16;12071778;19;20917;-79
2022/05/20 16:01:57;;;;;;;1.23;1.20;;;30.80;31.10;;;29.34;30.96;100951.22;12066530;19;20035;-79
2022/05/20 16:05:58;;;;;;;1.30;1.20;;;30.80;31.30;;;29.33;31.09;100936.13;12065542;19;20026;-77
2022/05/20 16:10:00;;;;;;;4.05;1.42;;;30.80;31.30;;;29.33;31.36;100941.50;12080136;19;20291;-77
2022/05/20 16:14:02;;;;;;;1.30;1.30;;;30.80;31.30;;;29.37;30.94;100950.00;12068511;19;20022;-78
2022/05/20 16:18:05;;;;;;;1.50;1.40;;;30.80;31.30;;;29.25;30.91;100928.25;12083713;19;20710;-77
2022/05/20 16:22:09;;;;;;;1.45;1.35;;;30.70;31.20;;;29.24;30.85;100919.31;12087383;19;20944;-77
2022/05/20 16:26:23;;;;;;;1.40;1.30;;;30.70;31.10;;;29.17;30.83;100914.97;12200135;19;20021;-77
2022/05/20 16:30:28;;;;;;;1.27;1.17;;;30.60;31.00;;;29.21;30.94;100926.97;12232560;19;20026;-77
2022/05/20 16:34:30;;;;;;;3.00;1.38;;;30.60;31.40;;;28.88;31.13;100872.00;12232017;19;20376;-76
2022/05/20 16:38:32;;;;;;;1.30;1.20;;;30.50;31.40;;;28.91;30.87;100881.53;12236858;19;20025;-77
2022/05/20 16:42:33;;;;;;;1.50;1.40;;;30.50;31.30;;;29.03;31.06;100900.59;12234296;19;20074;-77
2022/05/20 16:46:35;;;;;;;1.40;1.30;;;30.30;31.30;;;29.01;31.27;100890.06;12237729;19;20030;-78
2022/05/20 16:50:39;;;;;;;1.40;1.30;;;30.40;31.70;;;28.94;31.02;100894.56;12235923;19;20010;-77
2022/05/20 16:54:46;;;;;;;2.75;1.40;;;30.30;31.40;;;28.92;31.30;100879.66;12235011;19;20368;-77
2022/05/20 17:03:07;;;;;;;2.20;1.40;;;30.20;31.90;;;28.79;31.31;100850.91;12234719;19;20026;-77
2022/05/20 17:07:09;;;;;;;4.00;1.70;;;30.20;31.90;;;28.67;31.64;100829.13;12234389;19;20035;-77
2022/05/20 17:11:13;;;;;;;1.38;1.20;;;30.10;32.20;;;28.75;32.08;100846.94;12242955;19;20013;-78
2022/05/20 17:15:15;;;;;;;1.65;1.55;;;30.20;32.50;;;28.72;31.91;100844.66;12239381;19;20007;-76
2022/05/20 17:19:17;;;;;;;1.45;1.35;;;30.00;32.50;;;28.67;32.07;100854.16;12239915;19;20015;-78
2022/05/20 17:27:38;;;;;;;2.42;1.73;;;30.00;32.30;;;28.60;32.09;100834.50;12248399;19;20018;-77
2022/05/20 17:31:40;;;;;;;2.78;1.63;;;30.00;33.00;;;28.61;32.22;100827.25;12243948;19;20580;-77
2022/05/20 17:35:44;;;;;;;3.55;1.52;;;29.90;32.70;;;28.53;32.35;100812.13;12243264;19;20384;-78
2022/05/20 17:39:49;;;;;;;1.70;1.60;;;29.90;33.20;;;28.30;32.57;100782.88;12247114;19;20002;-78
2022/05/20 17:43:51;;;;;;;1.73;1.40;;;29.80;33.20;;;28.11;32.76;100756.75;12236025;19;20031;-78
2022/05/20 17:47:53;;;;;;;1.60;1.50;;;29.60;33.10;;;28.24;32.87;100776.44;12242425;19;20104;-77
2022/05/20 17:51:56;;;;;;;2.80;1.30;;;29.70;33.40;;;28.03;32.95;100736.28;12242893;19;20121;-79